createdAt,value
2019-03-19T00:00:49.106Z,52.19
2019-03-19T00:01:49.026Z,52.39
2019-03-19T00:02:49.025Z,52.29
2019-03-19T00:03:48.932Z,52.49
2019-03-19T00:04:49.031Z,52.49
2019-03-19T00:05:48.996Z,52.59
2019-03-19T00:06:48.966Z,52.29
2019-03-19T00:07:48.995Z,52.39
2019-03-19T00:08:48.974Z,52.69
2019-03-19T00:09:48.961Z,51.99
2019-03-19T00:10:48.970Z,51.68
2019-03-19T00:11:48.942Z,52.19
2019-03-19T00:12:48.908Z,52.09
2019-03-19T00:13:48.843Z,51.49
2019-03-19T00:14:48.908Z,51.89
2019-03-19T00:15:48.881Z,52.49
2019-03-19T00:16:48.886Z,52.39
2019-03-19T00:17:48.761Z,51.68
2019-03-19T00:18:48.885Z,52.09
2019-03-19T00:19:48.769Z,52.49
2019-03-19T00:20:48.832Z,51.68
2019-03-19T00:21:48.736Z,51.99
2019-03-19T00:22:48.817Z,52.29
2019-03-19T00:23:48.704Z,52.19
2019-03-19T00:24:48.784Z,51.59
2019-03-19T00:25:48.726Z,51.68
2019-03-19T00:26:48.773Z,51.49
2019-03-19T00:27:48.671Z,51.68
2019-03-19T00:28:48.739Z,51.39
2019-03-19T00:29:48.634Z,51.29
2019-03-19T00:30:48.663Z,51.09
2019-03-19T00:31:48.705Z,51.09
2019-03-19T00:32:48.704Z,51.29
2019-03-19T00:33:48.696Z,51.18
2019-03-19T00:34:48.581Z,51.49
2019-03-19T00:35:48.553Z,51.39
2019-03-19T00:36:48.679Z,51.79
2019-03-19T00:37:48.642Z,50.78
2019-03-19T00:38:48.545Z,51.89
2019-03-19T00:39:48.644Z,51.39
2019-03-19T00:40:48.616Z,50.78
2019-03-19T00:41:48.589Z,50.98
2019-03-19T00:42:48.601Z,50.78
2019-03-19T00:43:48.562Z,50.98
2019-03-19T00:44:48.581Z,51.09
2019-03-19T00:45:48.546Z,50.89
2019-03-19T00:46:48.446Z,51.09
2019-03-19T00:47:48.528Z,50.98
2019-03-19T00:48:48.540Z,50.98
2019-03-19T00:49:48.509Z,51.09
2019-03-19T00:50:48.518Z,50.78
2019-03-19T00:51:48.479Z,50.78
2019-03-19T00:52:48.470Z,51.09
2019-03-19T00:53:48.466Z,50.98
2019-03-19T00:54:48.480Z,50.98
2019-03-19T00:55:48.440Z,50.91
2019-03-19T00:56:48.430Z,51.09
2019-03-19T00:57:48.423Z,50.98
2019-03-19T00:58:48.412Z,51.09
2019-03-19T00:59:48.405Z,50.78
2019-03-19T01:00:48.421Z,50.98
2019-03-19T01:01:48.380Z,51.18
2019-03-19T01:02:48.389Z,50.89
2019-03-19T01:03:48.246Z,50.48
2019-03-19T01:04:48.353Z,50.58
2019-03-19T01:05:48.334Z,50.68
2019-03-19T01:06:48.374Z,50.48
2019-03-19T01:07:48.318Z,50.58
2019-03-19T01:08:48.322Z,50.60
2019-03-19T01:09:48.286Z,50.78
2019-03-19T01:10:48.199Z,50.48
2019-03-19T01:11:48.265Z,50.60
2019-03-19T01:12:48.251Z,50.58
2019-03-19T01:13:48.255Z,50.60
2019-03-19T01:14:48.235Z,50.51
2019-03-19T01:15:48.310Z,50.28
2019-03-19T01:16:48.128Z,50.31
2019-03-19T01:17:48.222Z,50.51
2019-03-19T01:18:48.198Z,50.18
2019-03-19T01:19:48.191Z,50.68
2019-03-19T01:20:48.205Z,50.28
2019-03-19T01:21:48.170Z,49.98
2019-03-19T01:22:48.145Z,50.08
2019-03-19T01:23:48.137Z,49.77
2019-03-19T01:24:48.130Z,49.98
2019-03-19T01:25:55.133Z,49.98
2019-03-19T01:26:49.144Z,49.98
2019-03-19T01:27:48.103Z,48.90
2019-03-19T01:28:48.063Z,48.97
2019-03-19T01:29:48.086Z,49.07
2019-03-19T01:30:48.089Z,49.10
2019-03-19T01:31:48.044Z,49.07
2019-03-19T01:32:47.931Z,49.18
2019-03-19T01:33:47.920Z,49.40
2019-03-19T01:34:47.909Z,49.27
2019-03-19T01:35:48.002Z,49.40
2019-03-19T01:36:48.019Z,49.48
2019-03-19T01:37:47.962Z,49.30
2019-03-19T01:38:47.977Z,49.40
2019-03-19T01:39:47.858Z,49.48
2019-03-19T01:40:47.940Z,49.30
2019-03-19T01:41:47.944Z,49.19
2019-03-19T01:42:47.988Z,49.18
2019-03-19T01:43:47.843Z,49.18
2019-03-19T01:44:47.893Z,48.90
2019-03-19T01:45:47.884Z,48.90
2019-03-19T01:46:47.781Z,48.97
2019-03-19T01:47:47.875Z,49.10
2019-03-19T01:48:47.854Z,49.27
2019-03-19T01:49:47.893Z,49.19
2019-03-19T01:50:47.836Z,48.77
2019-03-19T01:51:47.824Z,48.79
2019-03-19T01:52:47.818Z,48.69
2019-03-19T01:53:47.794Z,48.59
2019-03-19T01:54:47.791Z,48.79
2019-03-19T01:55:47.799Z,49.30
2019-03-19T01:56:47.750Z,48.79
2019-03-19T01:57:47.724Z,48.90
2019-03-19T01:58:47.745Z,48.90
2019-03-19T01:59:47.717Z,47.79
2019-03-19T02:00:47.708Z,48.90
2019-03-19T02:01:47.726Z,48.19
2019-03-19T02:02:47.687Z,47.89
2019-03-19T02:03:47.674Z,48.29
2019-03-19T02:04:47.658Z,48.29
2019-03-19T02:05:47.648Z,47.99
2019-03-19T02:06:47.635Z,48.29
2019-03-19T02:07:47.675Z,48.29
2019-03-19T02:08:47.608Z,48.59
2019-03-19T02:09:47.622Z,48.19
2019-03-19T02:10:47.595Z,47.89
2019-03-19T02:11:47.574Z,48.39
2019-03-19T02:12:47.641Z,47.69
2019-03-19T02:13:47.561Z,48.39
2019-03-19T02:14:47.565Z,47.59
2019-03-19T02:15:47.469Z,47.79
2019-03-19T02:16:47.444Z,47.69
2019-03-19T02:17:47.473Z,47.49
2019-03-19T02:18:47.508Z,47.99
2019-03-19T02:19:47.409Z,48.19
2019-03-19T02:20:47.497Z,47.89
2019-03-19T02:21:47.403Z,48.29
2019-03-19T02:22:47.407Z,47.79
2019-03-19T02:23:47.382Z,48.19
2019-03-19T02:24:47.455Z,47.99
2019-03-19T02:25:47.351Z,48.09
2019-03-19T02:26:47.414Z,47.69
2019-03-19T02:27:47.381Z,47.99
2019-03-19T02:28:47.395Z,48.19
2019-03-19T02:29:47.299Z,47.79
2019-03-19T02:30:47.379Z,47.69
2019-03-19T02:31:47.371Z,47.69
2019-03-19T02:32:47.379Z,48.39
2019-03-19T02:33:47.388Z,48.19
2019-03-19T02:34:47.366Z,47.79
2019-03-19T02:35:47.314Z,47.89
2019-03-19T02:36:47.324Z,47.19
2019-03-19T02:37:47.231Z,47.08
2019-03-19T02:38:47.213Z,48.19
2019-03-19T02:39:47.333Z,47.19
2019-03-19T02:40:47.171Z,48.29
2019-03-19T02:41:47.175Z,47.69
2019-03-19T02:42:47.271Z,48.19
2019-03-19T02:43:47.319Z,47.28
2019-03-19T02:44:47.261Z,47.99
2019-03-19T02:45:47.200Z,48.19
2019-03-19T02:46:47.219Z,47.69
2019-03-19T02:47:47.197Z,47.79
2019-03-19T02:48:47.180Z,47.49
2019-03-19T02:49:47.180Z,47.59
2019-03-19T02:50:47.187Z,47.79
2019-03-19T02:51:47.155Z,47.49
2019-03-19T02:52:47.170Z,47.59
2019-03-19T02:53:47.120Z,47.49
2019-03-19T02:54:47.116Z,47.69
2019-03-19T02:55:47.097Z,47.28
2019-03-19T02:56:47.129Z,47.59
2019-03-19T02:57:47.101Z,47.28
2019-03-19T02:58:46.989Z,47.08
2019-03-19T02:59:46.976Z,47.49
2019-03-19T03:00:47.065Z,47.59
2019-03-19T03:01:47.077Z,47.19
2019-03-19T03:02:46.962Z,47.39
2019-03-19T03:03:47.009Z,47.19
2019-03-19T03:04:47.015Z,47.28
2019-03-19T03:05:47.018Z,47.28
2019-03-19T03:06:46.985Z,47.89
2019-03-19T03:07:46.972Z,47.59
2019-03-19T03:08:46.995Z,47.69
2019-03-19T03:09:46.941Z,47.59
2019-03-19T03:10:46.943Z,47.59
2019-03-19T03:11:46.962Z,47.59
2019-03-19T03:12:46.928Z,47.28
2019-03-19T03:13:46.901Z,46.88
2019-03-19T03:14:46.901Z,46.88
2019-03-19T03:15:46.886Z,47.28
2019-03-19T03:16:46.875Z,46.78
2019-03-19T03:17:46.893Z,46.78
2019-03-19T03:18:46.857Z,46.68
2019-03-19T03:19:46.860Z,46.68
2019-03-19T03:20:46.832Z,46.68
2019-03-19T03:21:46.828Z,46.68
2019-03-19T03:22:46.815Z,46.68
2019-03-19T03:23:46.834Z,46.98
2019-03-19T03:24:46.763Z,46.88
2019-03-19T03:25:46.781Z,46.88
2019-03-19T03:26:48.627Z,46.98
2019-03-19T03:27:46.739Z,46.78
2019-03-19T03:28:46.650Z,46.68
2019-03-19T03:29:46.770Z,46.88
2019-03-19T03:30:46.724Z,46.88
2019-03-19T03:31:46.703Z,46.88
2019-03-19T03:32:46.774Z,46.78
2019-03-19T03:33:46.703Z,46.58
2019-03-19T03:34:46.589Z,46.98
2019-03-19T03:35:46.659Z,46.58
2019-03-19T03:36:46.716Z,46.68
2019-03-19T03:37:46.670Z,46.78
2019-03-19T03:38:46.656Z,46.68
2019-03-19T03:39:46.629Z,46.88
2019-03-19T03:40:46.631Z,46.98
2019-03-19T03:41:46.630Z,46.58
2019-03-19T03:42:46.648Z,46.68
2019-03-19T03:43:46.598Z,46.98
2019-03-19T03:44:46.585Z,46.68
2019-03-19T03:45:46.577Z,46.38
2019-03-19T03:46:46.573Z,46.88
2019-03-19T03:47:46.592Z,46.58
2019-03-19T03:48:46.560Z,46.58
2019-03-19T03:49:46.554Z,46.58
2019-03-19T03:50:46.492Z,46.78
2019-03-19T03:51:46.491Z,46.68
2019-03-19T03:52:46.504Z,46.58
2019-03-19T03:53:46.460Z,46.48
2019-03-19T03:54:46.454Z,46.78
2019-03-19T03:55:46.443Z,46.88
2019-03-19T03:57:00.881Z,46.88
2019-03-19T03:57:47.466Z,46.78
2019-03-19T03:58:59.947Z,46.78
2019-03-19T03:59:47.393Z,46.68
2019-03-19T04:00:46.393Z,46.68
2019-03-19T04:01:46.381Z,46.78
2019-03-19T04:02:46.277Z,46.88
2019-03-19T04:03:46.406Z,46.68
2019-03-19T04:04:46.342Z,46.88
2019-03-19T04:05:46.327Z,46.88
2019-03-19T04:06:46.314Z,46.98
2019-03-19T04:07:46.312Z,46.68
2019-03-19T04:08:46.344Z,46.58
2019-03-19T04:09:46.315Z,46.98
2019-03-19T04:10:46.191Z,46.78
2019-03-19T04:11:46.277Z,46.68
2019-03-19T04:12:46.277Z,46.68
2019-03-19T04:13:46.279Z,46.68
2019-03-19T04:14:46.743Z,46.68
2019-03-19T04:15:46.208Z,46.58
2019-03-19T04:16:46.222Z,46.58
2019-03-19T04:17:46.201Z,46.38
2019-03-19T04:18:46.197Z,46.78
2019-03-19T04:19:46.226Z,46.28
2019-03-19T04:20:46.168Z,46.48
2019-03-19T04:21:46.156Z,46.58
2019-03-19T04:22:46.139Z,46.48
2019-03-19T04:23:46.131Z,46.58
2019-03-19T04:24:46.163Z,46.98
2019-03-19T04:25:46.158Z,46.58
2019-03-19T04:26:46.146Z,46.68
2019-03-19T04:27:46.014Z,46.58
2019-03-19T04:28:46.103Z,46.48
2019-03-19T04:29:46.093Z,46.38
2019-03-19T04:30:46.062Z,46.38
2019-03-19T04:31:46.043Z,46.28
2019-03-19T04:32:46.040Z,46.38
2019-03-19T04:33:46.024Z,46.18
2019-03-19T04:34:46.010Z,46.38
2019-03-19T04:35:46.053Z,46.38
2019-03-19T04:36:46.000Z,46.38
2019-03-19T04:37:45.988Z,46.48
2019-03-19T04:38:45.970Z,46.38
2019-03-19T04:39:45.882Z,46.08
2019-03-19T04:40:45.984Z,46.18
2019-03-19T04:41:45.943Z,46.20
2019-03-19T04:42:45.953Z,46.18
2019-03-19T04:43:45.855Z,45.90
2019-03-19T04:44:45.912Z,46.28
2019-03-19T04:45:45.915Z,46.18
2019-03-19T04:46:45.820Z,46.08
2019-03-19T04:47:45.884Z,45.98
2019-03-19T04:48:45.861Z,46.28
2019-03-19T04:49:45.857Z,46.08
2019-03-19T04:50:45.831Z,45.98
2019-03-19T04:51:45.859Z,46.00
2019-03-19T04:52:45.858Z,45.98
2019-03-19T04:53:45.801Z,45.78
2019-03-19T04:54:45.815Z,45.78
2019-03-19T04:55:45.776Z,46.08
2019-03-19T04:56:45.779Z,45.98
2019-03-19T04:57:45.787Z,45.87
2019-03-19T04:58:45.751Z,45.87
2019-03-19T04:59:45.775Z,46.08
2019-03-19T05:00:45.753Z,45.98
2019-03-19T05:01:45.741Z,45.78
2019-03-19T05:02:45.721Z,45.78
2019-03-19T05:03:45.770Z,45.87
2019-03-19T05:04:45.692Z,45.67
2019-03-19T05:05:45.668Z,45.67
2019-03-19T05:06:45.682Z,45.87
2019-03-19T05:07:45.672Z,45.87
2019-03-19T05:08:45.669Z,45.98
2019-03-19T05:09:45.689Z,45.87
2019-03-19T05:10:45.610Z,45.87
2019-03-19T05:11:45.632Z,45.57
2019-03-19T05:12:45.607Z,46.08
2019-03-19T05:13:45.611Z,46.38
2019-03-19T05:14:45.650Z,46.08
2019-03-19T05:15:45.489Z,46.18
2019-03-19T05:16:45.567Z,46.28
2019-03-19T05:17:45.547Z,45.67
2019-03-19T05:18:45.530Z,45.47
2019-03-19T05:19:45.561Z,46.08
2019-03-19T05:20:45.504Z,45.57
2019-03-19T05:21:45.533Z,46.08
2019-03-19T05:22:45.401Z,45.67
2019-03-19T05:23:45.473Z,45.57
2019-03-19T05:24:45.461Z,45.79
2019-03-19T05:25:45.487Z,45.57
2019-03-19T05:26:45.359Z,46.28
2019-03-19T05:27:45.450Z,45.87
2019-03-19T05:28:45.427Z,45.67
2019-03-19T05:29:45.479Z,45.98
2019-03-19T05:30:45.342Z,45.87
2019-03-19T05:31:45.400Z,45.98
2019-03-19T05:32:45.390Z,45.67
2019-03-19T05:33:45.378Z,45.87
2019-03-19T05:34:45.358Z,45.67
2019-03-19T05:35:45.381Z,45.87
2019-03-19T05:36:45.346Z,45.98
2019-03-19T05:37:45.363Z,45.87
2019-03-19T05:38:45.320Z,45.78
2019-03-19T05:39:45.287Z,45.78
2019-03-19T05:40:45.335Z,45.87
2019-03-19T05:41:45.274Z,46.38
2019-03-19T05:42:45.295Z,45.78
2019-03-19T05:43:45.306Z,46.00
2019-03-19T05:44:45.254Z,45.78
2019-03-19T05:45:45.251Z,45.78
2019-03-19T05:46:45.233Z,45.78
2019-03-19T05:47:45.117Z,45.98
2019-03-19T05:48:45.253Z,45.78
2019-03-19T05:49:45.203Z,46.08
2019-03-19T05:50:45.194Z,46.28
2019-03-19T05:51:45.087Z,46.38
2019-03-19T05:52:45.171Z,46.18
2019-03-19T05:53:45.164Z,45.67
2019-03-19T05:54:45.188Z,45.78
2019-03-19T05:55:45.143Z,45.78
2019-03-19T05:56:45.117Z,45.78
2019-03-19T05:57:49.857Z,45.67
2019-03-19T05:58:46.005Z,45.47
2019-03-19T05:59:45.083Z,45.78
2019-03-19T06:00:45.108Z,45.57
2019-03-19T06:01:45.107Z,45.47
2019-03-19T06:02:45.065Z,45.67
2019-03-19T06:03:45.060Z,45.57
2019-03-19T06:04:45.018Z,45.57
2019-03-19T06:05:45.023Z,45.37
2019-03-19T06:06:45.060Z,45.37
2019-03-19T06:07:44.990Z,45.47
2019-03-19T06:08:45.009Z,45.07
2019-03-19T06:09:44.994Z,45.50
2019-03-19T06:10:45.011Z,45.78
2019-03-19T06:11:44.948Z,45.47
2019-03-19T06:12:44.993Z,45.37
2019-03-19T06:13:44.937Z,45.37
2019-03-19T06:14:44.934Z,45.37
2019-03-19T06:15:44.914Z,45.67
2019-03-19T06:16:44.892Z,45.37
2019-03-19T06:17:44.898Z,45.67
2019-03-19T06:18:44.911Z,45.57
2019-03-19T06:19:44.859Z,45.67
2019-03-19T06:20:44.875Z,45.67
2019-03-19T06:21:44.828Z,45.57
2019-03-19T06:22:44.860Z,45.57
2019-03-19T06:23:44.854Z,45.67
2019-03-19T06:24:44.800Z,45.57
2019-03-19T06:25:44.813Z,45.27
2019-03-19T06:26:44.690Z,45.67
2019-03-19T06:27:44.684Z,45.27
2019-03-19T06:28:44.808Z,45.27
2019-03-19T06:29:44.763Z,45.27
2019-03-19T06:30:44.665Z,45.27
2019-03-19T06:31:44.718Z,45.47
2019-03-19T06:32:44.728Z,45.47
2019-03-19T06:33:44.697Z,45.37
2019-03-19T06:34:44.641Z,44.97
2019-03-19T06:35:44.689Z,45.37
2019-03-19T06:36:44.687Z,45.17
2019-03-19T06:37:44.678Z,45.17
2019-03-19T06:38:44.637Z,45.17
2019-03-19T06:39:44.686Z,44.97
2019-03-19T06:40:44.645Z,45.07
2019-03-19T06:41:44.581Z,45.27
2019-03-19T06:42:44.606Z,44.77
2019-03-19T06:43:44.637Z,44.97
2019-03-19T06:44:44.622Z,44.57
2019-03-19T06:45:44.518Z,44.87
2019-03-19T06:46:44.566Z,44.77
2019-03-19T06:47:44.457Z,44.57
2019-03-19T06:48:44.482Z,44.97
2019-03-19T06:49:44.444Z,44.77
2019-03-19T06:50:45.639Z,44.87
2019-03-19T06:51:44.449Z,44.67
2019-03-19T06:52:44.406Z,44.57
2019-03-19T06:53:44.400Z,44.67
2019-03-19T06:54:44.375Z,44.47
2019-03-19T06:55:44.379Z,44.67
2019-03-19T06:56:44.489Z,44.57
2019-03-19T06:57:44.433Z,44.57
2019-03-19T06:58:44.343Z,44.77
2019-03-19T06:59:44.333Z,44.57
2019-03-19T07:00:44.325Z,44.57
2019-03-19T07:01:44.320Z,44.57
2019-03-19T07:02:44.315Z,45.07
2019-03-19T07:03:44.313Z,45.07
2019-03-19T07:04:44.273Z,44.67
2019-03-19T07:05:44.264Z,44.57
2019-03-19T07:06:44.272Z,44.55
2019-03-19T07:07:44.416Z,44.85
2019-03-19T07:08:44.305Z,45.25
2019-03-19T07:09:44.231Z,45.25
2019-03-19T07:10:44.217Z,45.25
2019-03-19T07:11:44.203Z,44.75
2019-03-19T07:12:44.184Z,44.65
2019-03-19T07:13:44.214Z,44.55
2019-03-19T07:14:44.210Z,44.95
2019-03-19T07:15:44.138Z,45.15
2019-03-19T07:16:44.126Z,45.35
2019-03-19T07:17:44.132Z,45.25
2019-03-19T07:18:44.118Z,45.05
2019-03-19T07:19:44.948Z,44.55
2019-03-19T07:20:44.094Z,44.85
2019-03-19T07:21:44.084Z,44.55
2019-03-19T07:22:44.063Z,44.65
2019-03-19T07:23:44.070Z,44.65
2019-03-19T07:24:44.075Z,44.85
2019-03-19T07:25:44.202Z,44.63
2019-03-19T07:26:44.124Z,44.55
2019-03-19T07:27:44.097Z,44.85
2019-03-19T07:28:44.113Z,44.83
2019-03-19T07:29:44.098Z,44.85
2019-03-19T07:30:44.094Z,44.65
2019-03-19T07:31:44.114Z,44.85
2019-03-19T07:32:43.979Z,44.65
2019-03-19T07:33:43.951Z,44.95
2019-03-19T07:34:43.947Z,45.13
2019-03-19T07:35:44.033Z,44.93
2019-03-19T07:36:43.938Z,44.43
2019-03-19T07:37:43.933Z,45.03
2019-03-19T07:38:43.908Z,44.63
2019-03-19T07:39:43.904Z,46.03
2019-03-19T07:40:43.880Z,47.04
2019-03-19T07:41:43.879Z,48.85
2019-03-19T07:42:43.885Z,47.64
2019-03-19T07:43:43.835Z,47.14
2019-03-19T07:44:43.820Z,47.54
2019-03-19T07:45:43.818Z,46.94
2019-03-19T07:46:45.854Z,46.84
2019-03-19T07:47:43.828Z,46.41
2019-03-19T07:48:43.812Z,46.61
2019-03-19T07:49:43.781Z,46.23
2019-03-19T07:50:43.771Z,46.41
2019-03-19T07:51:43.772Z,46.31
2019-03-19T07:52:43.740Z,46.22
2019-03-19T07:53:43.746Z,46.44
2019-03-19T07:54:43.737Z,46.51
2019-03-19T07:55:43.714Z,46.72
2019-03-19T07:56:43.753Z,46.73
2019-03-19T07:57:43.697Z,46.61
2019-03-19T07:58:45.548Z,46.92
2019-03-19T07:59:43.673Z,46.72
2019-03-19T08:00:43.753Z,46.51
2019-03-19T08:01:43.743Z,46.61
2019-03-19T08:02:43.781Z,46.51
2019-03-19T08:03:43.727Z,46.61
2019-03-19T08:04:43.706Z,46.61
2019-03-19T08:05:43.633Z,46.51
2019-03-19T08:06:43.692Z,46.51
2019-03-19T08:07:43.682Z,46.51
2019-03-19T08:08:43.588Z,46.31
2019-03-19T08:09:43.560Z,46.61
2019-03-19T08:10:43.537Z,46.41
2019-03-19T08:11:43.553Z,46.61
2019-03-19T08:12:43.552Z,47.02
2019-03-19T08:13:43.564Z,46.51
2019-03-19T08:14:43.599Z,46.61
2019-03-19T08:15:43.488Z,46.51
2019-03-19T08:16:43.496Z,46.41
2019-03-19T08:17:43.497Z,46.41
2019-03-19T08:18:43.468Z,46.41
2019-03-19T08:19:43.479Z,46.61
2019-03-19T08:20:43.445Z,46.61
2019-03-19T08:21:43.425Z,46.51
2019-03-19T08:22:43.408Z,46.22
2019-03-19T08:23:43.413Z,45.91
2019-03-19T08:24:43.546Z,45.51
2019-03-19T08:25:43.488Z,45.91
2019-03-19T08:26:43.503Z,46.22
2019-03-19T08:27:43.366Z,46.51
2019-03-19T08:28:43.473Z,46.72
2019-03-19T08:29:43.445Z,47.22
2019-03-19T08:30:43.340Z,47.12
2019-03-19T08:31:43.418Z,47.42
2019-03-19T08:32:43.341Z,47.12
2019-03-19T08:33:43.403Z,47.32
2019-03-19T08:34:43.288Z,47.32
2019-03-19T08:35:43.278Z,47.52
2019-03-19T08:36:43.256Z,47.12
2019-03-19T08:37:43.252Z,47.42
2019-03-19T08:38:43.256Z,47.72
2019-03-19T08:39:43.348Z,46.92
2019-03-19T08:40:43.230Z,47.22
2019-03-19T08:41:43.232Z,47.22
2019-03-19T08:42:43.201Z,46.81
2019-03-19T08:43:43.353Z,46.61
2019-03-19T08:44:43.182Z,46.80
2019-03-19T08:45:43.167Z,46.69
2019-03-19T08:46:43.181Z,46.69
2019-03-19T08:47:43.244Z,46.80
2019-03-19T08:48:43.249Z,46.19
2019-03-19T08:49:43.233Z,46.19
2019-03-19T08:50:43.197Z,46.39
2019-03-19T08:51:43.195Z,46.49
2019-03-19T08:52:43.237Z,46.59
2019-03-19T08:53:43.060Z,46.80
2019-03-19T08:54:43.106Z,47.19
2019-03-19T08:55:43.331Z,47.77
2019-03-19T08:56:43.048Z,47.67
2019-03-19T08:57:43.068Z,47.97
2019-03-19T08:58:43.028Z,47.97
2019-03-19T08:59:43.006Z,47.67
2019-03-19T09:00:43.003Z,47.38
2019-03-19T09:01:42.998Z,47.65
2019-03-19T09:02:42.988Z,48.05
2019-03-19T09:03:43.005Z,48.28
2019-03-19T09:04:42.962Z,47.65
2019-03-19T09:05:42.939Z,48.35
2019-03-19T09:06:42.922Z,47.55
2019-03-19T09:07:42.921Z,47.96
2019-03-19T09:08:42.933Z,48.16
2019-03-19T09:09:42.945Z,47.65
2019-03-19T09:10:42.903Z,47.88
2019-03-19T09:11:42.881Z,47.77
2019-03-19T09:12:42.869Z,47.55
2019-03-19T09:13:42.883Z,47.55
2019-03-19T09:14:42.908Z,47.85
2019-03-19T09:15:42.880Z,47.77
2019-03-19T09:16:42.803Z,48.18
2019-03-19T09:17:42.803Z,47.65
2019-03-19T09:18:42.802Z,48.05
2019-03-19T09:19:42.782Z,47.55
2019-03-19T09:20:42.781Z,47.67
2019-03-19T09:21:42.846Z,48.05
2019-03-19T09:22:42.767Z,47.65
2019-03-19T09:23:42.745Z,47.65
2019-03-19T09:24:42.747Z,47.75
2019-03-19T09:25:42.729Z,47.65
2019-03-19T09:26:42.692Z,47.65
2019-03-19T09:27:42.744Z,48.25
2019-03-19T09:28:42.691Z,47.55
2019-03-19T09:29:42.679Z,48.35
2019-03-19T09:30:42.663Z,48.18
2019-03-19T09:31:42.638Z,48.35
2019-03-19T09:32:42.639Z,48.16
2019-03-19T09:33:42.673Z,47.35
2019-03-19T09:34:42.624Z,47.15
2019-03-19T09:35:42.594Z,47.55
2019-03-19T09:36:42.587Z,47.38
2019-03-19T09:37:44.915Z,47.45
2019-03-19T09:38:43.639Z,47.25
2019-03-19T09:39:42.560Z,47.67
2019-03-19T09:40:42.561Z,47.75
2019-03-19T09:41:42.534Z,47.97
2019-03-19T09:42:42.532Z,47.67
2019-03-19T09:43:42.508Z,48.28
2019-03-19T09:44:42.534Z,47.97
2019-03-19T09:45:42.492Z,48.18
2019-03-19T09:46:42.497Z,47.97
2019-03-19T09:47:42.455Z,48.58
2019-03-19T09:48:42.454Z,48.68
2019-03-19T09:49:42.458Z,49.08
2019-03-19T09:50:42.465Z,48.78
2019-03-19T09:51:42.416Z,49.18
2019-03-19T09:52:42.418Z,48.68
2019-03-19T09:53:42.393Z,48.58
2019-03-19T09:54:42.395Z,48.68
2019-03-19T09:55:42.427Z,48.88
2019-03-19T09:56:42.376Z,49.08
2019-03-19T09:57:42.393Z,49.08
2019-03-19T09:58:42.354Z,49.38
2019-03-19T09:59:44.505Z,49.38
2019-03-19T10:00:42.338Z,49.28
2019-03-19T10:01:42.315Z,49.48
2019-03-19T10:02:42.317Z,49.38
2019-03-19T10:03:42.332Z,49.18
2019-03-19T10:04:42.282Z,49.48
2019-03-19T10:05:42.275Z,49.38
2019-03-19T10:06:42.250Z,49.18
2019-03-19T10:07:42.255Z,49.18
2019-03-19T10:08:42.418Z,49.28
2019-03-19T10:09:42.212Z,49.38
2019-03-19T10:10:42.250Z,49.38
2019-03-19T10:11:42.189Z,49.18
2019-03-19T10:12:42.204Z,49.38
2019-03-19T10:13:42.187Z,48.98
2019-03-19T10:14:42.214Z,48.78
2019-03-19T10:15:42.159Z,47.58
2019-03-19T10:16:42.162Z,48.18
2019-03-19T10:17:42.181Z,48.08
2019-03-19T10:18:42.235Z,47.67
2019-03-19T10:19:42.129Z,48.48
2019-03-19T10:20:42.119Z,47.67
2019-03-19T10:21:42.094Z,47.67
2019-03-19T10:22:42.099Z,47.45
2019-03-19T10:23:42.069Z,48.16
2019-03-19T10:24:42.068Z,48.16
2019-03-19T10:25:42.085Z,47.85
2019-03-19T10:26:42.065Z,48.46
2019-03-19T10:27:42.027Z,48.25
2019-03-19T10:28:41.999Z,47.96
2019-03-19T10:29:42.009Z,48.16
2019-03-19T10:30:41.994Z,48.05
2019-03-19T10:31:41.997Z,48.16
2019-03-19T10:32:42.011Z,48.16
2019-03-19T10:33:41.968Z,48.05
2019-03-19T10:34:41.968Z,47.85
2019-03-19T10:35:41.938Z,47.96
2019-03-19T10:36:41.921Z,48.25
2019-03-19T10:37:42.007Z,47.83
2019-03-19T10:38:41.944Z,48.03
2019-03-19T10:39:41.884Z,47.93
2019-03-19T10:40:41.887Z,48.13
2019-03-19T10:41:41.867Z,47.93
2019-03-19T10:42:41.853Z,47.63
2019-03-19T10:43:41.903Z,47.53
2019-03-19T10:44:41.850Z,47.50
2019-03-19T10:45:41.846Z,48.03
2019-03-19T10:46:41.800Z,47.31
2019-03-19T10:47:41.815Z,47.61
2019-03-19T10:48:41.801Z,47.00
2019-03-19T10:49:41.810Z,47.20
2019-03-19T10:50:41.777Z,46.93
2019-03-19T10:51:41.755Z,46.91
2019-03-19T10:52:41.754Z,46.68
2019-03-19T10:53:41.759Z,46.28
2019-03-19T10:54:41.746Z,46.48
2019-03-19T10:55:41.762Z,46.18
2019-03-19T10:56:41.718Z,46.48
2019-03-19T10:57:41.704Z,46.28
2019-03-19T10:58:41.687Z,46.28
2019-03-19T10:59:49.118Z,46.18
2019-03-19T11:00:42.736Z,45.98
2019-03-19T11:01:41.643Z,45.78
2019-03-19T11:02:41.645Z,45.78
2019-03-19T11:03:41.641Z,45.78
2019-03-19T11:04:41.624Z,45.98
2019-03-19T11:05:41.600Z,45.58
2019-03-19T11:06:41.634Z,45.58
2019-03-19T11:07:41.582Z,45.78
2019-03-19T11:08:41.569Z,45.28
2019-03-19T11:09:41.575Z,45.28
2019-03-19T11:10:41.548Z,45.28
2019-03-19T11:11:41.543Z,45.58
2019-03-19T11:12:41.567Z,45.28
2019-03-19T11:13:42.821Z,45.68
2019-03-19T11:14:41.515Z,45.38
2019-03-19T11:15:41.533Z,45.18
2019-03-19T11:16:41.467Z,45.30
2019-03-19T11:17:41.503Z,45.30
2019-03-19T11:18:41.476Z,45.60
2019-03-19T11:19:41.439Z,45.20
2019-03-19T11:20:41.444Z,45.50
2019-03-19T11:21:41.434Z,45.50
2019-03-19T11:22:41.431Z,45.40
2019-03-19T11:23:41.412Z,45.40
2019-03-19T11:24:41.391Z,46.11
2019-03-19T11:25:41.376Z,45.60
2019-03-19T11:26:41.380Z,45.40
2019-03-19T11:27:41.365Z,45.60
2019-03-19T11:28:41.369Z,45.62
2019-03-19T11:29:41.335Z,45.53
2019-03-19T11:30:41.332Z,45.62
2019-03-19T11:31:41.404Z,45.90
2019-03-19T11:32:41.304Z,45.62
2019-03-19T11:33:41.315Z,45.50
2019-03-19T11:34:41.292Z,45.62
2019-03-19T11:35:41.305Z,45.92
2019-03-19T11:36:41.316Z,45.90
2019-03-19T11:37:41.251Z,46.12
2019-03-19T11:38:41.232Z,45.62
2019-03-19T11:39:41.325Z,45.40
2019-03-19T11:40:41.230Z,45.62
2019-03-19T11:41:41.191Z,45.83
2019-03-19T11:42:41.545Z,46.03
2019-03-19T11:43:41.511Z,46.03
2019-03-19T11:44:42.913Z,46.23
2019-03-19T11:45:41.160Z,46.23
2019-03-19T11:46:41.160Z,46.03
2019-03-19T11:47:41.161Z,46.83
2019-03-19T11:48:41.126Z,46.62
2019-03-19T11:49:41.102Z,46.83
2019-03-19T11:50:41.181Z,46.53
2019-03-19T11:51:41.108Z,46.53
2019-03-19T11:52:41.190Z,46.62
2019-03-19T11:53:41.107Z,46.62
2019-03-19T11:54:41.054Z,45.84
2019-03-19T11:55:41.048Z,46.04
2019-03-19T11:56:41.035Z,46.45
2019-03-19T11:57:41.121Z,46.55
2019-03-19T11:58:41.102Z,46.55
2019-03-19T11:59:41.130Z,46.55
2019-03-19T12:00:41.091Z,46.15
2019-03-19T12:01:41.083Z,46.15
2019-03-19T12:02:41.076Z,45.95
2019-03-19T12:03:41.059Z,46.25
2019-03-19T12:04:41.042Z,46.15
2019-03-19T12:05:41.072Z,46.04
2019-03-19T12:06:41.028Z,45.87
2019-03-19T12:07:41.017Z,45.87
2019-03-19T12:08:41.010Z,45.87
2019-03-19T12:09:40.989Z,45.95
2019-03-19T12:10:40.971Z,45.97
2019-03-19T12:11:41.008Z,45.57
2019-03-19T12:12:40.972Z,45.87
2019-03-19T12:13:40.944Z,45.47
2019-03-19T12:14:40.912Z,45.57
2019-03-19T12:15:40.919Z,45.87
2019-03-19T12:16:40.927Z,45.57
2019-03-19T12:17:40.906Z,45.67
2019-03-19T12:18:40.887Z,45.67
2019-03-19T12:19:40.869Z,45.26
2019-03-19T12:20:40.839Z,45.39
2019-03-19T12:21:40.853Z,45.67
2019-03-19T12:22:40.884Z,45.57
2019-03-19T12:23:40.841Z,45.37
2019-03-19T12:24:40.815Z,45.37
2019-03-19T12:25:40.814Z,45.37
2019-03-19T12:26:40.800Z,45.67
2019-03-19T12:27:40.788Z,45.29
2019-03-19T12:28:40.825Z,45.47
2019-03-19T12:29:40.784Z,45.67
2019-03-19T12:30:40.759Z,45.29
2019-03-19T12:31:40.722Z,44.99
2019-03-19T12:32:40.732Z,45.29
2019-03-19T12:33:41.466Z,45.09
2019-03-19T12:34:40.730Z,45.39
2019-03-19T12:35:40.694Z,45.49
2019-03-19T12:36:40.688Z,44.99
2019-03-19T12:37:40.678Z,45.59
2019-03-19T12:38:40.663Z,45.49
2019-03-19T12:39:40.692Z,45.69
2019-03-19T12:40:40.637Z,45.57
2019-03-19T12:41:40.626Z,45.37
2019-03-19T12:42:40.627Z,45.79
2019-03-19T12:43:40.624Z,44.96
2019-03-19T12:44:40.598Z,45.59
2019-03-19T12:45:40.624Z,45.69
2019-03-19T12:46:40.600Z,45.18
2019-03-19T12:47:40.560Z,45.59
2019-03-19T12:48:40.558Z,45.39
2019-03-19T12:49:40.537Z,45.39
2019-03-19T12:50:40.540Z,45.29
2019-03-19T12:51:40.525Z,45.77
2019-03-19T12:52:40.548Z,45.59